KDDC/DDC METAR and TAF weather

Enter ICAO airport designator
Station Type Date Time Source
KDDC METAR 2022/06/25 22:52 UTC NOAA

KDDC 252252Z AUTO 03020G30KT 10SM CLR 29/15 A3011 RMK AO2 PK WND 01031/2221 SLP162 T02890150


Station Type Date Time Source
KDDC Decoded METAR 2022/06/25 22:52 UTC NOAA

DODGE CITY REGIONAL AIRPORT, KS, United States (KDDC) 37-46N 99-58W 789M
Jun 25, 2022 - 06:52 PM EDT / 2022.06.25 2252 UTC
Wind: from the NNE (030 degrees) at 23 MPH (20 KT) gusting to 35 MPH (30 KT):0
Visibility: 10 mile(s):0
Sky conditions: clear
Temperature: 84.0 F (28.9 C)
Dew Point: 59.0 F (15.0 C)
Relative Humidity: 42%
Pressure (altimeter): 30.11 in. Hg (1019 hPa)
ob: KDDC 252252Z AUTO 03020G30KT 10SM CLR 29/15 A3011 RMK AO2 PK WND 01031/2221 SLP162 T02890150
cycle: 23

Station Type Date Time Source
KDDC TAF 2022/06/25 18:22 UTC NOAA

TAF KDDC 251720Z 2518/2618 01020G30KT P6SM SCT100 SCT200
FM252100 01020G30KT P6SM SCT100 BKN200
FM260200 03013KT P6SM VCSH OVC100
FM260900 03010KT P6SM -RA OVC080
FM261500 04012G22KT P6SM VCSH OVC070

Example: see airport list